Time;durP1;ratioP1;P1;durP2;ratioP2;P2;SDS_P1;SDS_P2;PMS_P1;PMS_P2;Temp;Humidity;BMP_temperature;BMP_pressure;BME280_temperature;BME280_humidity;BME280_pressure;Samples;Min_cycle;Max_cycle;Signal;HPM_P1;HPM_P2
2022/10/30 00:00:49;;;;;;;15.18;4.07;;;15.90;99.90;;;;;;5059669;28;20117;-72
2022/10/30 00:03:16;;;;;;;10.38;3.85;;;15.90;99.90;;;;;;5077288;28;20320;-72
2022/10/30 00:05:46;;;;;;;14.23;3.55;;;15.90;99.90;;;;;;5077505;28;20103;-72
2022/10/30 00:08:15;;;;;;;16.70;3.47;;;15.90;99.90;;;;;;5077371;28;20112;-72
2022/10/30 00:10:43;;;;;;;16.38;3.67;;;15.90;99.90;;;;;;5077079;28;20025;-72
2022/10/30 00:13:12;;;;;;;12.45;3.88;;;15.90;99.90;;;;;;5076996;28;20402;-72
2022/10/30 00:15:46;;;;;;;8.23;3.40;;;16.00;99.90;;;;;;5077193;28;20020;-72
2022/10/30 00:18:13;;;;;;;10.55;3.13;;;16.10;99.90;;;;;;5077195;28;20425;-72
2022/10/30 00:20:40;;;;;;;12.10;3.95;;;16.20;99.90;;;;;;5059685;28;20110;-72
2022/10/30 00:23:08;;;;;;;12.80;3.38;;;16.40;99.90;;;;;;5076923;28;20056;-72
2022/10/30 00:25:36;;;;;;;14.13;4.32;;;16.40;99.90;;;;;;5075787;28;20412;-72
2022/10/30 00:28:07;;;;;;;16.35;3.53;;;16.50;99.90;;;;;;5077054;28;20021;-72
2022/10/30 00:30:35;;;;;;;8.25;3.85;;;16.40;99.90;;;;;;5076730;28;20024;-72
2022/10/30 00:33:03;;;;;;;10.23;3.72;;;16.40;99.90;;;;;;5076645;28;20075;-72
2022/10/30 00:35:30;;;;;;;11.60;3.15;;;16.40;99.90;;;;;;5077041;28;20024;-72
2022/10/30 00:37:58;;;;;;;13.20;3.63;;;16.30;99.90;;;;;;5077176;28;20340;-72
2022/10/30 00:40:26;;;;;;;11.38;3.53;;;16.20;99.90;;;;;;5077214;28;20099;-72
2022/10/30 00:42:53;;;;;;;11.30;4.10;;;16.10;99.90;;;;;;5076688;28;20044;-72
2022/10/30 00:45:21;;;;;;;12.40;3.83;;;16.00;99.90;;;;;;5075481;28;20055;-72
2022/10/30 00:47:54;;;;;;;10.55;3.60;;;15.90;99.90;;;;;;5059020;28;20031;-72
2022/10/30 00:50:29;;;;;;;11.27;3.97;;;15.80;99.90;;;;;;5077122;28;20110;-72
2022/10/30 00:53:10;;;;;;;12.82;3.97;;;15.70;99.90;;;;;;5076510;28;20024;-72
2022/10/30 00:55:55;;;;;;;13.32;3.55;;;15.60;99.90;;;;;;5076468;28;20031;-72
2022/10/30 00:58:31;;;;;;;9.13;3.20;;;15.40;99.90;;;;;;5076700;28;20116;-72
2022/10/30 01:01:05;;;;;;;15.32;5.60;;;15.40;99.90;;;;;;5076402;28;20351;-72
2022/10/30 01:03:34;;;;;;;13.45;3.83;;;15.20;99.90;;;;;;5076774;28;20026;-72
2022/10/30 01:06:07;;;;;;;15.85;3.50;;;15.10;99.90;;;;;;5078633;28;20422;-72
2022/10/30 01:08:36;;;;;;;11.20;4.88;;;15.00;99.90;;;;;;5083241;28;20067;-72
2022/10/30 01:11:05;;;;;;;10.05;4.53;;;15.00;99.90;;;;;;5065176;28;20021;-72
2022/10/30 01:13:36;;;;;;;20.77;4.03;;;14.90;99.90;;;;;;5083646;28;20024;-72
2022/10/30 01:16:16;;;;;;;10.20;3.60;;;14.80;99.90;;;;;;5082903;28;20020;-72
2022/10/30 01:18:50;;;;;;;13.18;4.28;;;14.80;99.90;;;;;;5083424;28;20413;-72
2022/10/30 01:21:33;;;;;;;8.95;3.70;;;14.80;99.90;;;;;;5083476;28;20032;-71
2022/10/30 01:24:17;;;;;;;16.15;4.18;;;14.70;99.90;;;;;;5082972;28;20020;-72
2022/10/30 01:26:59;;;;;;;12.65;4.93;;;14.70;99.90;;;;;;5083586;28;20074;-72
2022/10/30 01:29:51;;;;;;;13.10;3.67;;;14.70;99.90;;;;;;5082811;28;20104;-72
2022/10/30 01:32:27;;;;;;;12.02;4.90;;;14.60;99.90;;;;;;5083340;28;20028;-72
2022/10/30 01:35:12;;;;;;;14.68;4.20;;;14.50;99.90;;;;;;5082843;28;20049;-72
2022/10/30 01:37:52;;;;;;;14.25;5.55;;;14.40;99.90;;;;;;5065182;28;20028;-72
2022/10/30 01:40:20;;;;;;;12.63;4.43;;;14.40;99.90;;;;;;5083087;28;20106;-72
2022/10/30 01:42:53;;;;;;;13.13;4.47;;;14.30;99.90;;;;;;5082825;28;20056;-72
2022/10/30 01:45:27;;;;;;;15.07;5.53;;;14.20;99.90;;;;;;5082698;28;20424;-72
2022/10/30 01:48:27;;;;;;;18.88;4.93;;;14.20;99.90;;;;;;5083412;28;20104;-72
2022/10/30 01:51:04;;;;;;;11.90;3.95;;;14.10;99.90;;;;;;5049667;28;20046;-72
2022/10/30 01:53:35;;;;;;;14.38;4.50;;;14.10;99.90;;;;;;5082735;28;20367;-71
2022/10/30 01:56:39;;;;;;;15.30;4.10;;;14.00;99.90;;;;;;5083102;28;20081;-72
2022/10/30 01:59:22;;;;;;;13.25;4.40;;;13.90;99.90;;;;;;5082524;28;20024;-71
2022/10/30 02:01:49;;;;;;;9.48;4.13;;;13.80;99.90;;;;;;5082650;28;20025;-71
2022/10/30 02:04:16;;;;;;;14.27;4.45;;;13.80;99.90;;;;;;5064784;28;20373;-72
2022/10/30 02:06:44;;;;;;;12.60;4.22;;;13.80;99.90;;;;;;5082726;28;20071;-72
2022/10/30 02:09:15;;;;;;;16.08;4.30;;;13.80;99.90;;;;;;5082492;28;20103;-72
2022/10/30 02:11:44;;;;;;;7.65;4.05;;;13.70;99.90;;;;;;5082507;28;20028;-71
2022/10/30 02:14:16;;;;;;;14.00;4.00;;;13.60;99.90;;;;;;5082699;28;20024;-71
2022/10/30 02:16:48;;;;;;;11.02;4.13;;;13.60;99.90;;;;;;5082612;28;20048;-71
2022/10/30 02:19:16;;;;;;;10.57;4.70;;;13.60;99.90;;;;;;5078963;28;20038;-72
2022/10/30 02:21:43;;;;;;;10.43;3.95;;;13.60;99.90;;;;;;5078198;28;20328;-71
2022/10/30 02:24:11;;;;;;;13.43;4.07;;;13.60;99.90;;;;;;5079184;28;20025;-72
2022/10/30 02:26:38;;;;;;;11.82;3.95;;;13.50;99.90;;;;;;5079268;28;20039;-72
2022/10/30 02:29:05;;;;;;;13.88;4.18;;;13.50;99.90;;;;;;5079312;28;20021;-72
2022/10/30 02:31:32;;;;;;;14.63;4.50;;;13.50;99.90;;;;;;5080055;28;20515;-72
2022/10/30 02:34:00;;;;;;;9.57;3.67;;;13.50;99.90;;;;;;5079092;28;20312;-71
2022/10/30 02:36:27;;;;;;;8.75;4.13;;;13.40;99.90;;;;;;5061177;28;20095;-72
2022/10/30 02:38:55;;;;;;;12.13;3.92;;;13.40;99.90;;;;;;5079091;28;20024;-72
2022/10/30 02:41:23;;;;;;;14.77;3.63;;;13.40;99.90;;;;;;5079465;28;20025;-72
2022/10/30 02:43:52;;;;;;;12.40;3.75;;;13.40;99.90;;;;;;5077792;28;20021;-72
2022/10/30 02:46:20;;;;;;;15.38;4.28;;;13.30;99.90;;;;;;5078729;28;20455;-72
2022/10/30 02:48:47;;;;;;;18.40;4.60;;;13.30;99.90;;;;;;5079242;28;20048;-72
2022/10/30 02:51:14;;;;;;;23.15;4.50;;;13.30;99.90;;;;;;5078902;28;20043;-72
2022/10/30 02:53:42;;;;;;;9.07;3.97;;;13.20;99.90;;;;;;5078677;28;20044;-71
2022/10/30 02:56:11;;;;;;;12.90;4.00;;;13.20;99.90;;;;;;5078308;28;20044;-72
2022/10/30 02:58:39;;;;;;;16.10;4.20;;;13.20;99.90;;;;;;5079287;28;20020;-72
2022/10/30 03:01:12;;;;;;;14.02;4.13;;;13.20;99.90;;;;;;5078528;28;20016;-72
2022/10/30 03:03:41;;;;;;;13.43;4.32;;;13.10;99.90;;;;;;5078758;28;20044;-72
2022/10/30 03:06:11;;;;;;;11.40;3.75;;;13.10;99.90;;;;;;5060691;28;20074;-72
2022/10/30 03:08:38;;;;;;;18.42;4.43;;;13.10;99.90;;;;;;5079119;28;20046;-72
2022/10/30 03:11:08;;;;;;;14.50;4.05;;;13.10;99.90;;;;;;5061187;28;20090;-71
2022/10/30 03:13:36;;;;;;;14.38;3.85;;;13.00;99.90;;;;;;5078578;28;20408;-72
2022/10/30 03:16:13;;;;;;;10.90;4.63;;;13.00;99.90;;;;;;5078158;28;20067;-71
2022/10/30 03:18:41;;;;;;;10.10;4.00;;;12.90;99.90;;;;;;5078380;28;20023;-72
2022/10/30 03:21:10;;;;;;;11.80;5.50;;;12.90;99.90;;;;;;5079048;28;20017;-71
2022/10/30 03:23:38;;;;;;;14.68;4.32;;;12.90;99.90;;;;;;5078389;28;20027;-71
2022/10/30 03:26:06;;;;;;;12.20;4.10;;;12.80;99.90;;;;;;5076974;28;20103;-71
2022/10/30 03:28:33;;;;;;;16.27;4.22;;;12.80;99.90;;;;;;5060225;28;20028;-71
2022/10/30 03:31:06;;;;;;;10.70;4.82;;;12.70;99.90;;;;;;5077991;28;20417;-72
2022/10/30 03:33:34;;;;;;;7.20;3.67;;;12.70;99.90;;;;;;5078446;28;20096;-72
2022/10/30 03:36:02;;;;;;;9.52;4.78;;;12.70;99.90;;;;;;5077805;28;20047;-72
2022/10/30 03:38:29;;;;;;;11.18;4.00;;;12.70;99.90;;;;;;5078484;28;20056;-72
2022/10/30 03:40:56;;;;;;;17.75;5.25;;;12.60;99.90;;;;;;5077684;28;20424;-72
2022/10/30 03:43:24;;;;;;;11.27;4.43;;;12.60;99.90;;;;;;5078258;28;20027;-72
2022/10/30 03:45:53;;;;;;;16.67;4.78;;;12.60;99.90;;;;;;5077857;28;20016;-72
2022/10/30 03:48:22;;;;;;;16.23;4.90;;;12.60;99.90;;;;;;5077805;28;20024;-72
2022/10/30 03:50:54;;;;;;;15.45;4.47;;;12.50;99.90;;;;;;5077592;28;20027;-72
2022/10/30 03:53:24;;;;;;;8.57;3.95;;;12.50;99.90;;;;;;5077469;28;20024;-72
2022/10/30 03:55:57;;;;;;;13.82;4.88;;;12.40;99.90;;;;;;5077107;28;20024;-72
2022/10/30 03:58:26;;;;;;;8.68;4.93;;;12.40;99.90;;;;;;5077568;28;20028;-72
2022/10/30 04:00:53;;;;;;;15.98;5.05;;;12.40;99.90;;;;;;5077306;28;20040;-72
2022/10/30 04:03:20;;;;;;;10.30;4.57;;;12.40;99.90;;;;;;5077867;28;20024;-71
2022/10/30 04:05:49;;;;;;;18.50;6.13;;;12.30;99.90;;;;;;5077840;28;20023;-72
2022/10/30 04:08:17;;;;;;;16.50;6.07;;;12.30;99.90;;;;;;5077364;28;20024;-71
2022/10/30 04:10:46;;;;;;;14.50;4.38;;;12.20;99.90;;;;;;5077418;28;20020;-71
2022/10/30 04:13:15;;;;;;;18.77;4.40;;;12.20;99.90;;;;;;5077334;28;20028;-71
2022/10/30 04:15:42;;;;;;;10.38;4.35;;;12.10;99.90;;;;;;5077023;28;20082;-72
2022/10/30 04:18:15;;;;;;;10.25;4.70;;;12.10;99.90;;;;;;5075956;28;20024;-71
2022/10/30 04:20:43;;;;;;;15.27;4.60;;;12.10;99.90;;;;;;5076986;28;20481;-71
2022/10/30 04:23:15;;;;;;;10.00;5.70;;;12.10;99.90;;;;;;5077215;28;20024;-71
2022/10/30 04:25:43;;;;;;;10.20;4.82;;;12.00;99.90;;;;;;5076927;28;20328;-71
2022/10/30 04:28:10;;;;;;;12.02;4.90;;;12.00;99.90;;;;;;5077134;28;20363;-72
2022/10/30 04:30:38;;;;;;;15.88;5.88;;;11.90;99.90;;;;;;5076984;28;20055;-71
2022/10/30 04:33:07;;;;;;;10.90;4.40;;;11.90;99.90;;;;;;5077085;28;20087;-71
2022/10/30 04:35:36;;;;;;;11.43;4.80;;;11.90;99.90;;;;;;5076789;28;20020;-71
2022/10/30 04:38:09;;;;;;;9.40;4.30;;;11.90;99.90;;;;;;5075645;28;20119;-72
2022/10/30 04:40:38;;;;;;;16.33;5.32;;;11.80;99.90;;;;;;5076172;28;20013;-72
2022/10/30 04:43:07;;;;;;;10.43;4.47;;;11.80;99.90;;;;;;5058919;28;20035;-72
2022/10/30 04:45:35;;;;;;;15.10;4.32;;;11.80;99.90;;;;;;5076568;28;20024;-72
2022/10/30 04:48:08;;;;;;;12.15;5.53;;;11.80;99.90;;;;;;5059012;28;20032;-71
2022/10/30 04:50:35;;;;;;;16.35;4.32;;;11.70;99.90;;;;;;5076583;28;20025;-72
2022/10/30 04:53:12;;;;;;;10.30;5.07;;;11.70;99.90;;;;;;5076520;28;20024;-71
2022/10/30 04:55:40;;;;;;;20.48;5.38;;;11.70;99.90;;;;;;5076548;28;20025;-71
2022/10/30 04:58:08;;;;;;;21.88;5.05;;;11.80;99.90;;;;;;5056600;28;20398;-72
2022/10/30 05:00:35;;;;;;;12.60;3.92;;;11.70;99.90;;;;;;5056363;28;20056;-72
2022/10/30 05:03:03;;;;;;;13.27;5.55;;;11.60;99.90;;;;;;5056744;28;20437;-71
2022/10/30 05:05:31;;;;;;;14.82;5.28;;;11.60;99.90;;;;;;5056387;28;20025;-71
2022/10/30 05:07:59;;;;;;;13.63;4.50;;;11.60;99.90;;;;;;5056539;28;20021;-72
2022/10/30 05:10:26;;;;;;;12.85;5.68;;;11.50;99.90;;;;;;5056357;28;20432;-71
2022/10/30 05:12:54;;;;;;;13.18;4.75;;;11.60;99.90;;;;;;5072245;28;20048;-71
2022/10/30 05:15:21;;;;;;;10.25;4.60;;;11.60;99.90;;;;;;5055167;28;20111;-72
2022/10/30 05:17:52;;;;;;;14.63;4.68;;;11.50;99.90;;;;;;5056415;28;20017;-71
2022/10/30 05:20:20;;;;;;;13.57;5.43;;;11.60;99.90;;;;;;5055181;28;20044;-72
2022/10/30 05:22:55;;;;;;;12.80;4.63;;;11.60;99.90;;;;;;5056539;28;20053;-72
2022/10/30 05:25:24;;;;;;;10.73;4.77;;;11.50;99.90;;;;;;5056230;28;20060;-71
2022/10/30 05:27:58;;;;;;;13.07;4.55;;;11.50;99.90;;;;;;5055303;28;20299;-72
2022/10/30 05:30:28;;;;;;;19.80;4.38;;;11.50;99.90;;;;;;5056111;28;20103;-72
2022/10/30 05:33:06;;;;;;;9.05;4.65;;;11.50;99.90;;;;;;5056671;28;20100;-71
2022/10/30 05:35:34;;;;;;;18.73;4.90;;;11.50;99.90;;;;;;5055073;28;20049;-72
2022/10/30 05:38:04;;;;;;;11.48;4.65;;;11.50;99.90;;;;;;5056799;28;20079;-71
2022/10/30 05:40:33;;;;;;;9.82;4.65;;;11.40;99.90;;;;;;5056092;28;20028;-72
2022/10/30 05:43:00;;;;;;;13.60;4.63;;;11.40;99.90;;;;;;5054983;28;20029;-72
2022/10/30 05:45:27;;;;;;;12.70;4.82;;;11.40;99.90;;;;;;5056510;28;20029;-72
2022/10/30 05:48:02;;;;;;;13.30;4.30;;;11.30;99.90;;;;;;5056319;28;20028;-72
2022/10/30 05:50:29;;;;;;;16.02;4.80;;;11.30;99.90;;;;;;5055958;28;20029;-71
2022/10/30 05:53:01;;;;;;;13.57;4.50;;;11.20;99.90;;;;;;5055637;28;20057;-72
2022/10/30 05:55:29;;;;;;;13.75;4.75;;;11.10;99.90;;;;;;5059801;28;20108;-71
2022/10/30 05:58:01;;;;;;;13.05;4.63;;;11.10;99.90;;;;;;5077970;28;20093;-71
2022/10/30 06:00:31;;;;;;;8.45;4.47;;;11.00;99.90;;;;;;5079579;28;20323;-72
2022/10/30 06:03:02;;;;;;;10.80;4.93;;;10.90;99.90;;;;;;5080311;28;20025;-72
2022/10/30 06:05:31;;;;;;;15.00;4.90;;;10.90;99.90;;;;;;5079593;28;20055;-71
2022/10/30 06:07:59;;;;;;;13.18;4.85;;;10.80;99.90;;;;;;5079532;28;20027;-71
2022/10/30 06:10:26;;;;;;;12.30;5.47;;;10.80;99.90;;;;;;5079448;28;20027;-71
2022/10/30 06:12:59;;;;;;;13.05;5.15;;;10.80;99.90;;;;;;5080065;28;20098;-71
2022/10/30 06:15:28;;;;;;;15.60;5.47;;;10.70;99.90;;;;;;5079325;28;20023;-71
2022/10/30 06:17:55;;;;;;;11.05;5.50;;;10.70;99.90;;;;;;5078263;28;20048;-71
2022/10/30 06:20:25;;;;;;;15.90;5.45;;;10.60;99.90;;;;;;5061606;28;20044;-71
2022/10/30 06:22:56;;;;;;;13.32;4.55;;;10.60;99.90;;;;;;5079418;28;20021;-71
2022/10/30 06:25:24;;;;;;;12.48;4.45;;;10.50;99.90;;;;;;5079229;28;20020;-72
2022/10/30 06:27:52;;;;;;;11.63;4.68;;;10.50;99.90;;;;;;5078122;28;20028;-71
2022/10/30 06:30:19;;;;;;;15.93;4.97;;;10.40;99.90;;;;;;5079222;28;20057;-71
2022/10/30 06:32:47;;;;;;;15.27;4.70;;;10.30;99.90;;;;;;5079720;28;20101;-71
2022/10/30 06:35:15;;;;;;;8.65;4.60;;;10.30;99.90;;;;;;5079002;28;20024;-71
2022/10/30 06:37:48;;;;;;;14.82;5.72;;;10.30;99.90;;;;;;5078963;28;20033;-71
2022/10/30 06:40:16;;;;;;;12.43;4.80;;;10.30;99.90;;;;;;5078941;28;20021;-71
2022/10/30 06:42:48;;;;;;;15.73;5.85;;;10.30;99.90;;;;;;5078971;28;20032;-72
2022/10/30 06:45:16;;;;;;;12.40;5.53;;;10.30;99.90;;;;;;5078792;28;20059;-71
2022/10/30 06:47:44;;;;;;;10.75;5.50;;;10.40;99.90;;;;;;5078860;28;20028;-71
2022/10/30 06:50:14;;;;;;;18.23;5.05;;;10.40;99.90;;;;;;5078762;28;20016;-71
2022/10/30 06:52:41;;;;;;;13.57;5.32;;;10.40;99.90;;;;;;5079362;28;20024;-71
2022/10/30 06:55:10;;;;;;;13.93;5.97;;;10.40;99.90;;;;;;5078651;28;20100;-71
2022/10/30 06:57:38;;;;;;;12.52;4.57;;;10.40;99.90;;;;;;5078355;28;20033;-71
2022/10/30 07:00:08;;;;;;;12.13;4.70;;;10.40;99.90;;;;;;5078354;28;20068;-71
2022/10/30 07:02:36;;;;;;;12.60;4.35;;;10.40;99.90;;;;;;5078613;28;20047;-71
2022/10/30 07:05:03;;;;;;;12.48;5.65;;;10.40;99.90;;;;;;5078031;28;20020;-71
2022/10/30 07:07:31;;;;;;;11.60;4.35;;;10.40;99.90;;;;;;5078483;28;20091;-72
2022/10/30 07:09:58;;;;;;;21.45;5.60;;;10.40;99.90;;;;;;5078932;28;20031;-71
2022/10/30 07:12:26;;;;;;;10.55;4.40;;;10.40;99.90;;;;;;5078959;28;20340;-72
2022/10/30 07:14:53;;;;;;;12.25;5.15;;;10.40;99.90;;;;;;5078761;28;20021;-72
2022/10/30 07:17:21;;;;;;;13.25;5.13;;;10.40;99.90;;;;;;5078786;28;20021;-72
2022/10/30 07:19:48;;;;;;;9.15;4.97;;;10.40;99.90;;;;;;5078744;28;20040;-71
2022/10/30 07:22:15;;;;;;;10.15;4.75;;;10.50;99.90;;;;;;5078799;28;20024;-71
2022/10/30 07:24:43;;;;;;;16.98;5.60;;;10.50;99.90;;;;;;5078106;28;20035;-72
2022/10/30 07:27:10;;;;;;;15.20;5.68;;;10.50;99.90;;;;;;5078354;28;20047;-72
2022/10/30 07:29:38;;;;;;;15.50;6.28;;;10.60;99.90;;;;;;5078040;28;20050;-72
2022/10/30 07:32:05;;;;;;;10.23;5.35;;;10.60;99.90;;;;;;5078568;28;20020;-71
2022/10/30 07:34:33;;;;;;;17.83;6.18;;;10.70;99.90;;;;;;5078419;28;20027;-71
2022/10/30 07:37:01;;;;;;;12.20;4.97;;;10.70;99.90;;;;;;5078423;28;20027;-72
2022/10/30 07:39:28;;;;;;;16.58;6.07;;;10.80;99.90;;;;;;5077821;28;20025;-72
2022/10/30 07:41:55;;;;;;;12.65;5.60;;;10.80;99.90;;;;;;5078188;28;20020;-71
2022/10/30 07:44:23;;;;;;;10.30;5.30;;;10.90;99.90;;;;;;5077612;28;20147;-71
2022/10/30 07:46:51;;;;;;;14.23;4.75;;;10.90;99.90;;;;;;5077633;28;20111;-72
2022/10/30 07:49:18;;;;;;;11.68;5.85;;;11.00;99.90;;;;;;5077533;28;20070;-72
2022/10/30 07:51:45;;;;;;;12.80;5.72;;;11.10;99.90;;;;;;5078186;28;20091;-72
2022/10/30 07:54:13;;;;;;;16.95;5.38;;;11.10;99.90;;;;;;5077510;28;20301;-72
2022/10/30 07:56:40;;;;;;;15.52;5.18;;;11.20;99.90;;;;;;5077387;28;20044;-73
2022/10/30 07:59:07;;;;;;;17.73;5.28;;;11.30;99.90;;;;;;5077321;28;20063;-74
2022/10/30 08:01:34;;;;;;;18.55;6.05;;;11.30;99.90;;;;;;5077758;28;20020;-72
2022/10/30 08:04:02;;;;;;;15.23;5.60;;;11.40;99.90;;;;;;5077331;28;20021;-72
2022/10/30 08:06:29;;;;;;;16.52;5.75;;;11.60;99.90;;;;;;5077272;28;20021;-72
2022/10/30 08:08:57;;;;;;;16.08;6.00;;;11.70;99.90;;;;;;5077238;28;20017;-72
2022/10/30 08:11:24;;;;;;;12.15;5.03;;;11.80;99.90;;;;;;5077617;28;20073;-72
2022/10/30 08:13:51;;;;;;;20.73;6.97;;;11.90;99.90;;;;;;5077895;28;20016;-72
2022/10/30 08:16:19;;;;;;;17.40;6.70;;;12.10;99.90;;;;;;5076261;28;20029;-72
2022/10/30 08:18:46;;;;;;;18.55;6.03;;;12.30;99.90;;;;;;5077031;28;20029;-72
2022/10/30 08:21:13;;;;;;;16.88;6.03;;;12.50;99.90;;;;;;5077024;28;20148;-72
2022/10/30 08:23:41;;;;;;;18.20;5.35;;;12.80;99.90;;;;;;5077189;28;20094;-72
2022/10/30 08:26:08;;;;;;;11.68;4.97;;;13.00;99.90;;;;;;5077506;28;20413;-72
2022/10/30 08:28:36;;;;;;;15.73;5.03;;;13.20;99.90;;;;;;5077197;28;20028;-72
2022/10/30 08:31:04;;;;;;;18.08;6.05;;;13.30;99.90;;;;;;5077067;28;20028;-72
2022/10/30 08:33:32;;;;;;;14.52;5.80;;;13.30;99.90;;;;;;5059130;28;20515;-75
2022/10/30 08:36:00;;;;;;;12.43;5.18;;;13.40;99.90;;;;;;5076789;28;20076;-72
2022/10/30 08:38:28;;;;;;;15.77;5.60;;;13.50;99.90;;;;;;5077043;28;20017;-72
2022/10/30 08:40:56;;;;;;;14.60;4.97;;;13.60;99.90;;;;;;5076733;28;20023;-75
2022/10/30 08:43:25;;;;;;;9.85;4.85;;;13.80;99.90;;;;;;5042557;28;20462;-73
2022/10/30 08:45:53;;;;;;;11.00;5.45;;;13.80;99.90;;;;;;5076564;28;20058;-73
2022/10/30 08:48:20;;;;;;;12.07;4.43;;;13.90;99.90;;;;;;5077227;28;20021;-72
2022/10/30 08:50:48;;;;;;;15.68;4.88;;;14.00;99.90;;;;;;5076528;28;20029;-74
2022/10/30 08:53:16;;;;;;;13.55;4.95;;;14.00;99.90;;;;;;5076946;28;20055;-73
2022/10/30 08:55:43;;;;;;;12.38;4.50;;;14.10;99.90;;;;;;5076549;28;20029;-73
2022/10/30 08:58:11;;;;;;;13.27;4.22;;;14.20;99.90;;;;;;5076855;28;20415;-74
2022/10/30 09:00:38;;;;;;;11.02;4.88;;;14.20;99.90;;;;;;5076706;28;20099;-74
2022/10/30 09:03:05;;;;;;;11.77;5.10;;;14.30;99.90;;;;;;5076660;28;20024;-74
2022/10/30 09:05:33;;;;;;;13.40;4.15;;;14.40;99.90;;;;;;5058585;28;20024;-79
2022/10/30 09:08:00;;;;;;;11.18;4.47;;;14.60;99.90;;;;;;5076944;28;20044;-75
2022/10/30 09:10:28;;;;;;;14.65;4.28;;;14.70;99.90;;;;;;5076775;28;20024;-74
2022/10/30 09:13:00;;;;;;;11.60;4.68;;;14.90;99.90;;;;;;5076502;28;20031;-74
2022/10/30 09:15:28;;;;;;;9.13;4.22;;;15.10;99.90;;;;;;5076243;28;20028;-74
2022/10/30 09:18:05;;;;;;;10.18;4.68;;;15.30;99.90;;;;;;5076367;28;20409;-74
2022/10/30 09:20:32;;;;;;;9.90;3.70;;;15.50;99.90;;;;;;5076333;28;20081;-74
2022/10/30 09:22:59;;;;;;;17.77;4.55;;;15.60;99.90;;;;;;5077020;28;20024;-74
2022/10/30 09:25:27;;;;;;;10.68;4.68;;;15.70;99.90;;;;;;5076287;28;20363;-74
2022/10/30 09:27:54;;;;;;;12.23;4.72;;;15.70;99.90;;;;;;5077736;28;20063;-74
2022/10/30 09:30:22;;;;;;;15.68;4.60;;;15.70;99.90;;;;;;5080227;28;20016;-74
2022/10/30 09:33:01;;;;;;;9.07;4.63;;;15.70;99.90;;;;;;5062589;28;20328;-75
2022/10/30 09:35:29;;;;;;;12.77;5.10;;;15.70;99.90;;;;;;5080799;28;20025;-74
2022/10/30 09:37:57;;;;;;;13.32;5.25;;;15.70;99.90;;;;;;5062465;28;20024;-74
2022/10/30 09:40:39;;;;;;;12.43;5.60;;;15.70;99.90;;;;;;5062354;28;20031;-77
2022/10/30 09:43:43;;;;;;;14.90;5.53;;;15.70;99.90;;;;;;5080174;28;20031;-73
2022/10/30 09:46:26;;;;;;;11.20;5.05;;;15.70;99.90;;;;;;5058917;28;20032;-72
2022/10/30 09:49:15;;;;;;;10.88;4.38;;;15.70;99.90;;;;;;5079971;28;20158;-76
2022/10/30 09:52:14;;;;;;;16.73;5.50;;;15.70;99.90;;;;;;5080236;28;20025;-74
2022/10/30 09:55:05;;;;;;;15.20;4.68;;;15.80;99.90;;;;;;5080070;28;20103;-74
2022/10/30 09:57:44;;;;;;;12.77;5.38;;;15.90;99.90;;;;;;5079601;28;20098;-74
2022/10/30 10:00:16;;;;;;;13.77;4.72;;;16.00;99.90;;;;;;5079920;28;20020;-73
2022/10/30 10:03:20;;;;;;;10.88;4.53;;;16.10;99.90;;;;;;5079793;28;20029;-73
2022/10/30 10:05:58;;;;;;;20.77;5.35;;;16.20;99.90;;;;;;5080129;28;20313;-73
2022/10/30 10:08:39;;;;;;;14.93;5.07;;;16.20;99.90;;;;;;5080126;28;20043;-72
2022/10/30 10:11:21;;;;;;;11.80;5.40;;;16.20;99.90;;;;;;5079478;28;20078;-72
2022/10/30 10:14:12;;;;;;;12.63;4.28;;;16.30;99.90;;;;;;5063391;28;20103;-73
2022/10/30 10:16:41;;;;;;;12.63;4.00;;;16.40;99.90;;;;;;5079480;28;20035;-73
2022/10/30 10:19:32;;;;;;;11.85;4.40;;;16.50;99.90;;;;;;5079405;28;20107;-73
2022/10/30 10:22:02;;;;;;;13.10;3.78;;;16.70;99.90;;;;;;5079388;28;20036;-73
2022/10/30 10:24:33;;;;;;;19.33;4.03;;;16.80;99.90;;;;;;5079272;28;20016;-73
2022/10/30 10:27:23;;;;;;;17.23;4.68;;;16.80;99.90;;;;;;5061469;28;20028;-73
2022/10/30 10:30:14;;;;;;;13.93;4.95;;;16.90;99.90;;;;;;5079682;28;20099;-72
2022/10/30 10:32:45;;;;;;;12.73;4.43;;;17.00;99.90;;;;;;5079260;28;20025;-73
2022/10/30 10:35:34;;;;;;;18.58;6.30;;;17.00;99.90;;;;;;5079661;28;20091;-72
2022/10/30 10:38:33;;;;;;;11.32;4.22;;;17.10;99.90;;;;;;5078933;28;20089;-73
2022/10/30 10:41:29;;;;;;;12.30;4.00;;;17.10;99.90;;;;;;5079258;28;20069;-73
2022/10/30 10:44:18;;;;;;;10.68;3.63;;;17.20;99.90;;;;;;5078896;28;20017;-73
2022/10/30 10:47:21;;;;;;;13.82;3.67;;;17.30;99.90;;;;;;5079572;28;20021;-73
2022/10/30 10:49:53;;;;;;;11.07;3.58;;;17.40;99.90;;;;;;5079346;28;20028;-71
2022/10/30 10:52:30;;;;;;;13.00;4.03;;;17.50;99.90;;;;;;5079533;28;20021;-73
2022/10/30 10:55:10;;;;;;;12.13;3.75;;;17.50;99.90;;;;;;5078965;28;20074;-74
2022/10/30 10:57:41;;;;;;;13.00;4.10;;;17.60;99.90;;;;;;5074200;28;20049;-75
2022/10/30 11:00:16;;;;;;;14.35;4.15;;;17.70;99.90;;;;;;5058521;28;20031;-74
2022/10/30 11:02:58;;;;;;;10.15;3.75;;;17.70;99.90;;;;;;5058544;28;20056;-75
2022/10/30 11:05:50;;;;;;;11.05;3.63;;;17.80;99.90;;;;;;5057437;28;20032;-74
2022/10/30 11:08:29;;;;;;;14.52;3.80;;;17.80;99.90;;;;;;5058935;28;20025;-75
2022/10/30 11:11:04;;;;;;;11.20;4.07;;;17.90;99.90;;;;;;5058385;28;20079;-75
2022/10/30 11:13:37;;;;;;;9.02;3.58;;;18.00;99.90;;;;;;5058310;28;20017;-74
2022/10/30 11:16:20;;;;;;;8.80;3.83;;;18.10;99.90;;;;;;5057164;28;20320;-75
2022/10/30 11:18:51;;;;;;;13.80;4.75;;;18.20;99.90;;;;;;5058717;28;20024;-75
2022/10/30 11:21:26;;;;;;;20.98;3.80;;;18.30;99.90;;;;;;5058240;28;20408;-75
2022/10/30 11:23:53;;;;;;;11.10;3.63;;;18.50;99.90;;;;;;5058737;28;20075;-74
2022/10/30 11:26:25;;;;;;;10.82;3.60;;;18.50;99.90;;;;;;5058120;28;20096;-74
2022/10/30 11:29:13;;;;;;;12.60;3.72;;;18.60;99.90;;;;;;5058232;28;20025;-74
2022/10/30 11:31:43;;;;;;;10.57;3.53;;;18.60;99.90;;;;;;5057975;28;20017;-74
2022/10/30 11:34:20;;;;;;;18.02;4.15;;;18.60;99.90;;;;;;5058248;28;20021;-75
2022/10/30 11:36:53;;;;;;;10.60;4.50;;;18.60;99.90;;;;;;5058369;28;20025;-75
2022/10/30 11:39:29;;;;;;;14.68;3.85;;;18.60;99.90;;;;;;5057877;28;20024;-74
2022/10/30 11:42:15;;;;;;;13.00;3.45;;;18.70;99.90;;;;;;5057844;28;20440;-76
2022/10/30 11:44:50;;;;;;;14.93;3.83;;;18.70;99.90;;;;;;5058141;28;20035;-75
2022/10/30 11:47:21;;;;;;;12.02;3.85;;;18.70;99.90;;;;;;5057873;28;20051;-75
2022/10/30 11:50:00;;;;;;;11.57;3.80;;;18.80;99.90;;;;;;5057467;28;20029;-75
2022/10/30 11:52:28;;;;;;;11.50;3.47;;;18.80;99.90;;;;;;5057660;28;20032;-75
2022/10/30 11:55:01;;;;;;;10.45;3.88;;;18.80;99.90;;;;;;5056467;28;20021;-75
2022/10/30 11:57:36;;;;;;;15.85;3.95;;;18.90;99.90;;;;;;5071739;28;20059;-75
2022/10/30 12:00:15;;;;;;;15.57;5.10;;;19.00;99.90;;;;;;5077358;28;20024;-78
2022/10/30 12:02:45;;;;;;;15.07;3.65;;;19.20;99.90;;;;;;5077703;28;20027;-78
2022/10/30 12:05:40;;;;;;;14.23;4.60;;;19.30;99.90;;;;;;5077342;28;20032;-77
2022/10/30 12:08:08;;;;;;;14.73;3.97;;;19.40;99.90;;;;;;5077421;28;20024;-75
2022/10/30 12:10:46;;;;;;;9.63;4.15;;;19.50;99.90;;;;;;5077492;28;20427;-75
2022/10/30 12:13:18;;;;;;;11.18;3.60;;;19.50;99.90;;;;;;5077122;28;20043;-75
2022/10/30 12:15:49;;;;;;;8.25;3.72;;;19.60;99.90;;;;;;5077737;28;20355;-75
2022/10/30 12:18:25;;;;;;;10.35;3.75;;;19.60;99.90;;;;;;5077248;28;20054;-75
2022/10/30 12:20:56;;;;;;;14.52;3.83;;;19.70;99.90;;;;;;5077031;28;20482;-72
2022/10/30 12:23:25;;;;;;;14.68;3.72;;;19.80;99.90;;;;;;5059356;28;20134;-72
2022/10/30 12:26:00;;;;;;;13.50;4.18;;;19.80;99.90;;;;;;5077523;28;20021;-71
2022/10/30 12:28:30;;;;;;;10.02;3.50;;;19.80;99.90;;;;;;5077362;28;20025;-71
2022/10/30 12:31:09;;;;;;;16.60;5.32;;;19.80;99.90;;;;;;5076823;28;20039;-72
2022/10/30 12:33:49;;;;;;;17.35;4.10;;;19.80;99.90;;;;;;5076801;28;20048;-72
2022/10/30 12:36:27;;;;;;;15.63;5.13;;;19.90;99.90;;;;;;5077098;28;20024;-72
2022/10/30 12:39:07;;;;;;;12.65;3.72;;;19.90;99.90;;;;;;5076931;28;20024;-72
2022/10/30 12:41:45;;;;;;;9.48;3.38;;;19.90;99.90;;;;;;5077349;28;20027;-73
2022/10/30 12:44:24;;;;;;;9.82;4.30;;;19.80;99.90;;;;;;5076673;28;20301;-72
2022/10/30 12:47:13;;;;;;;9.95;3.95;;;19.80;99.90;;;;;;5077428;28;20099;-71
2022/10/30 12:49:55;;;;;;;11.93;3.75;;;19.80;99.90;;;;;;5076939;28;20031;-71
2022/10/30 12:52:36;;;;;;;7.75;3.05;;;19.80;99.90;;;;;;5077143;28;20401;-75
2022/10/30 12:55:10;;;;;;;12.43;4.50;;;19.90;99.90;;;;;;5076887;28;20101;-73
2022/10/30 12:57:44;;;;;;;13.05;3.95;;;20.00;99.90;;;;;;5076532;28;20075;-73
2022/10/30 13:00:14;;;;;;;9.82;3.70;;;20.00;99.90;;;;;;5076503;28;20466;-73
2022/10/30 13:03:20;;;;;;;15.20;4.03;;;20.10;99.90;;;;;;5076477;28;20368;-75